Time;durP1;ratioP1;P1;durP2;ratioP2;P2;SDS_P1;SDS_P2;PMS_P1;PMS_P2;Temp;Humidity;BMP_temperature;BMP_pressure;BME280_temperature;BME280_humidity;BME280_pressure;Samples;Min_cycle;Max_cycle;Signal;HPM_P1;HPM_P2
2023/09/10 00:00:38;;;;;;;9.30;4.32;;;19.50;99.90;;;;;;4840466;29;20137;-68
2023/09/10 00:03:07;;;;;;;9.10;4.70;;;19.40;99.90;;;;;;4840707;29;20125;-70
2023/09/10 00:05:39;;;;;;;8.27;4.47;;;19.40;99.90;;;;;;4840629;29;20042;-70
2023/09/10 00:08:05;;;;;;;10.00;4.82;;;19.40;99.90;;;;;;4840361;29;20030;-68
2023/09/10 00:10:30;;;;;;;10.63;4.57;;;19.20;99.90;;;;;;4840167;29;20038;-69
2023/09/10 00:12:56;;;;;;;8.60;4.65;;;19.10;99.90;;;;;;4840470;29;20037;-69
2023/09/10 00:15:22;;;;;;;11.18;4.90;;;19.10;99.90;;;;;;4824959;29;20040;-68
2023/09/10 00:17:48;;;;;;;9.60;4.40;;;19.00;99.90;;;;;;4825076;29;20046;-69
2023/09/10 00:20:13;;;;;;;13.63;4.70;;;19.00;99.90;;;;;;4839992;29;20543;-69
2023/09/10 00:22:57;;;;;;;7.68;3.80;;;18.90;99.90;;;;;;4840028;29;20042;-69
2023/09/10 00:25:44;;;;;;;8.60;4.57;;;18.70;99.90;;;;;;4825156;29;20050;-69
2023/09/10 00:28:16;;;;;;;10.82;4.05;;;18.60;99.90;;;;;;4824957;29;20535;-69
2023/09/10 00:30:41;;;;;;;7.82;4.65;;;18.60;99.90;;;;;;4824446;29;20049;-69
2023/09/10 00:33:10;;;;;;;9.63;5.00;;;18.70;99.90;;;;;;4840096;29;20345;-69
2023/09/10 00:35:42;;;;;;;8.25;4.15;;;18.70;99.90;;;;;;4840167;29;20045;-69
2023/09/10 00:38:14;;;;;;;9.55;4.03;;;18.60;99.90;;;;;;4872322;29;20137;-70
2023/09/10 00:40:39;;;;;;;9.02;4.55;;;18.70;99.90;;;;;;4878991;29;20029;-69
2023/09/10 00:43:11;;;;;;;11.30;5.18;;;18.80;99.90;;;;;;4879395;29;20041;-69
2023/09/10 00:45:37;;;;;;;13.93;4.47;;;18.80;99.90;;;;;;4878813;29;20045;-69
2023/09/10 00:48:03;;;;;;;8.27;4.43;;;18.90;99.90;;;;;;4879027;29;20410;-68
2023/09/10 00:50:29;;;;;;;9.25;5.03;;;19.00;99.90;;;;;;4862128;29;20114;-68
2023/09/10 00:53:02;;;;;;;9.90;4.55;;;18.90;99.90;;;;;;4879096;29;20481;-68
2023/09/10 00:55:52;;;;;;;8.85;4.88;;;18.90;99.90;;;;;;4847060;29;20036;-68
2023/09/10 00:58:28;;;;;;;11.40;4.95;;;19.00;99.90;;;;;;4862358;29;20029;-68
2023/09/10 01:00:54;;;;;;;6.82;4.10;;;19.10;99.90;;;;;;4862144;29;20059;-69
2023/09/10 01:03:38;;;;;;;6.80;3.90;;;19.00;99.90;;;;;;4846271;29;20033;-69
2023/09/10 01:06:21;;;;;;;8.30;4.57;;;18.80;99.90;;;;;;4871941;29;20036;-69
2023/09/10 01:08:53;;;;;;;8.85;4.28;;;18.80;99.90;;;;;;4876301;29;20025;-69
2023/09/10 01:12:02;;;;;;;8.80;4.28;;;18.90;99.90;;;;;;4877557;29;20048;-69
2023/09/10 01:15:02;;;;;;;8.95;4.50;;;18.90;99.90;;;;;;4880062;29;20406;-69
2023/09/10 01:18:33;;;;;;;9.18;4.47;;;19.00;99.90;;;;;;4878177;29;20108;-69
2023/09/10 01:20:59;;;;;;;;;;;19.20;99.90;;;;;;4878631;29;20036;-70
2023/09/10 01:24:22;;;;;;;6.95;4.38;;;19.30;99.90;;;;;;4878107;29;19912;-69
2023/09/10 01:27:00;;;;;;;8.43;4.20;;;19.30;99.90;;;;;;4878272;29;20041;-69
2023/09/10 01:30:15;;;;;;;11.60;4.45;;;19.30;99.90;;;;;;4886063;29;20093;-69
2023/09/10 01:33:38;;;;;;;7.35;4.07;;;19.20;99.90;;;;;;4888536;29;20119;-69
2023/09/10 01:36:34;;;;;;;6.50;3.92;;;19.00;99.90;;;;;;4805341;29;20065;-68
2023/09/10 01:40:00;;;;;;;6.03;3.53;;;18.90;99.90;;;;;;4870600;29;20108;-68
2023/09/10 01:42:40;;;;;;;7.47;3.85;;;18.80;99.90;;;;;;4884190;29;20047;-69
2023/09/10 01:45:17;;;;;;;7.45;4.50;;;18.70;99.90;;;;;;4882829;29;20048;-68
2023/09/10 01:47:49;;;;;;;8.05;4.07;;;18.60;99.90;;;;;;4861674;29;20131;-68
2023/09/10 01:50:16;;;;;;;8.52;4.80;;;18.70;99.90;;;;;;4861485;29;20055;-68
2023/09/10 01:52:45;;;;;;;7.53;4.18;;;18.70;99.90;;;;;;4854206;29;20386;-69
2023/09/10 01:55:17;;;;;;;10.38;4.70;;;18.70;99.90;;;;;;4877970;29;20089;-68
2023/09/10 01:57:42;;;;;;;7.88;4.65;;;18.70;99.90;;;;;;4860675;29;20032;-68
2023/09/10 02:00:09;;;;;;;9.38;4.45;;;18.70;99.90;;;;;;4877991;29;20032;-69
2023/09/10 02:02:41;;;;;;;10.40;5.15;;;18.50;99.90;;;;;;4877969;29;20112;-68
2023/09/10 02:05:16;;;;;;;8.80;4.80;;;18.40;99.90;;;;;;4860961;29;20088;-68
2023/09/10 02:07:48;;;;;;;5.90;3.65;;;18.10;99.90;;;;;;4877873;29;20025;-68
2023/09/10 02:10:16;;;;;;;13.43;4.90;;;18.00;99.90;;;;;;4885184;29;20759;-68
2023/09/10 02:12:57;;;;;;;7.10;4.03;;;17.90;99.90;;;;;;4845564;29;20033;-69
2023/09/10 02:15:23;;;;;;;7.30;4.30;;;18.00;99.90;;;;;;4877685;29;20029;-68
2023/09/10 02:17:56;;;;;;;10.43;5.10;;;18.00;99.90;;;;;;4860952;29;20040;-69
2023/09/10 02:20:21;;;;;;;9.07;4.95;;;18.10;99.90;;;;;;4877074;29;20371;-68
2023/09/10 02:22:47;;;;;;;8.55;4.75;;;18.10;99.90;;;;;;4877696;29;20029;-68
2023/09/10 02:25:19;;;;;;;9.02;5.15;;;18.20;99.90;;;;;;4877822;29;20399;-68
2023/09/10 02:28:01;;;;;;;10.90;5.30;;;18.20;99.90;;;;;;4877346;29;20423;-68
2023/09/10 02:30:33;;;;;;;13.63;5.88;;;18.30;99.90;;;;;;4886203;29;20067;-68
2023/09/10 02:33:06;;;;;;;11.48;5.32;;;18.30;99.90;;;;;;4883186;29;20359;-69
2023/09/10 02:35:57;;;;;;;9.95;4.35;;;18.40;99.90;;;;;;4877202;29;20034;-69
2023/09/10 02:38:29;;;;;;;8.20;4.20;;;18.30;99.90;;;;;;4877443;29;20494;-68
2023/09/10 02:40:55;;;;;;;13.90;4.57;;;18.20;99.90;;;;;;4877196;29;20049;-68
2023/09/10 02:43:27;;;;;;;9.00;4.60;;;18.10;99.90;;;;;;4877496;29;20028;-69
2023/09/10 02:45:56;;;;;;;8.07;4.35;;;18.20;99.90;;;;;;4860870;29;20156;-69
2023/09/10 02:48:28;;;;;;;10.25;4.40;;;18.30;99.90;;;;;;4877466;29;20039;-68
2023/09/10 02:50:57;;;;;;;8.68;4.78;;;18.10;99.90;;;;;;4860291;29;20028;-69
2023/09/10 02:53:28;;;;;;;13.63;5.13;;;18.10;99.90;;;;;;4860597;29;20025;-68
2023/09/10 02:56:03;;;;;;;9.98;5.57;;;18.10;99.90;;;;;;4877407;29;20576;-69
2023/09/10 02:58:39;;;;;;;12.35;5.10;;;18.20;99.90;;;;;;4877257;29;20056;-68
2023/09/10 03:01:33;;;;;;;8.80;5.07;;;18.10;99.90;;;;;;4877133;29;20029;-69
2023/09/10 03:04:08;;;;;;;11.07;4.93;;;18.10;99.90;;;;;;4882620;29;20039;-69
2023/09/10 03:06:33;;;;;;;11.27;5.22;;;18.10;99.90;;;;;;4878456;29;20021;-69
2023/09/10 03:08:59;;;;;;;10.15;4.63;;;18.30;99.90;;;;;;4879803;29;20032;-69
2023/09/10 03:11:33;;;;;;;9.10;4.70;;;18.20;99.90;;;;;;4880650;29;20033;-69
2023/09/10 03:13:59;;;;;;;8.05;4.40;;;18.30;99.90;;;;;;4880486;29;20029;-69
2023/09/10 03:16:32;;;;;;;9.88;4.72;;;18.30;99.90;;;;;;4880876;29;20147;-70
2023/09/10 03:18:58;;;;;;;7.28;4.05;;;18.40;99.90;;;;;;4848729;29;20029;-69
2023/09/10 03:21:25;;;;;;;9.88;4.90;;;18.40;99.90;;;;;;4863508;29;20497;-69
2023/09/10 03:23:57;;;;;;;9.30;4.50;;;18.40;99.90;;;;;;4864696;29;20021;-70
2023/09/10 03:26:29;;;;;;;9.63;5.20;;;18.30;99.90;;;;;;4863604;29;20346;-69
2023/09/10 03:28:55;;;;;;;10.32;4.88;;;18.40;99.90;;;;;;4880315;29;20041;-69
2023/09/10 03:31:23;;;;;;;10.27;5.00;;;18.40;99.90;;;;;;4879801;29;20037;-69
2023/09/10 03:33:49;;;;;;;13.80;4.82;;;18.20;99.90;;;;;;4863409;29;20340;-68
2023/09/10 03:36:44;;;;;;;7.55;4.13;;;18.00;99.90;;;;;;4863320;29;20033;-69
2023/09/10 03:39:16;;;;;;;8.98;4.50;;;17.90;99.90;;;;;;4878244;29;20058;-68
2023/09/10 03:41:52;;;;;;;12.57;4.32;;;17.60;99.90;;;;;;4879637;29;20049;-69
2023/09/10 03:44:24;;;;;;;8.52;4.35;;;17.50;99.90;;;;;;4879822;29;20111;-69
2023/09/10 03:47:02;;;;;;;6.10;3.90;;;17.40;99.90;;;;;;4879922;29;20028;-69
2023/09/10 03:49:27;;;;;;;7.72;4.25;;;17.50;99.90;;;;;;4879852;29;20448;-69
2023/09/10 03:52:26;;;;;;;8.20;3.83;;;17.60;99.90;;;;;;4879433;29;20141;-68
2023/09/10 03:54:58;;;;;;;5.93;3.67;;;17.70;99.90;;;;;;4864039;29;20029;-68
2023/09/10 03:57:24;;;;;;;9.60;4.70;;;17.80;99.90;;;;;;4879845;29;20498;-69
2023/09/10 03:59:58;;;;;;;9.02;4.22;;;17.80;99.90;;;;;;4879438;29;20025;-69
2023/09/10 04:02:29;;;;;;;9.05;4.53;;;17.90;99.90;;;;;;4847255;29;20053;-69
2023/09/10 04:05:43;;;;;;;7.53;3.88;;;17.90;99.90;;;;;;4879616;29;20545;-69
2023/09/10 04:08:09;;;;;;;9.45;4.40;;;17.70;99.90;;;;;;4811284;29;20043;-69
2023/09/10 04:10:44;;;;;;;11.25;5.05;;;17.50;99.90;;;;;;4879160;29;20037;-69
2023/09/10 04:13:18;;;;;;;10.48;5.20;;;17.30;99.90;;;;;;4879477;29;20029;-69
2023/09/10 04:15:50;;;;;;;10.48;4.35;;;17.00;99.90;;;;;;4813899;29;20104;-69
2023/09/10 04:18:24;;;;;;;9.25;4.97;;;17.00;99.90;;;;;;4821859;29;20030;-69
2023/09/10 04:20:50;;;;;;;9.52;4.95;;;17.00;99.90;;;;;;4820537;29;20039;-69
2023/09/10 04:23:22;;;;;;;12.60;5.15;;;16.80;99.90;;;;;;4821406;29;20846;-69
2023/09/10 04:25:53;;;;;;;12.90;4.95;;;16.80;99.90;;;;;;4860303;29;20041;-68
2023/09/10 04:28:28;;;;;;;8.40;4.53;;;16.80;99.90;;;;;;4886988;29;20037;-68
2023/09/10 04:30:59;;;;;;;9.70;5.88;;;16.70;99.90;;;;;;4878952;29;20029;-68
2023/09/10 04:33:25;;;;;;;13.20;5.13;;;16.80;99.90;;;;;;4862178;29;20025;-68
2023/09/10 04:35:57;;;;;;;9.85;5.18;;;16.90;99.90;;;;;;4879164;29;20036;-69
2023/09/10 04:38:23;;;;;;;9.55;4.85;;;16.90;99.90;;;;;;4863023;29;20069;-68
2023/09/10 04:41:17;;;;;;;9.95;5.30;;;16.90;99.90;;;;;;4862182;29;20021;-69
2023/09/10 04:43:43;;;;;;;11.15;5.57;;;16.90;99.90;;;;;;4878522;29;20041;-69
2023/09/10 04:46:14;;;;;;;10.25;5.60;;;17.00;99.90;;;;;;4879032;29;20032;-69
2023/09/10 04:48:49;;;;;;;11.02;5.57;;;17.00;99.90;;;;;;4879044;29;20103;-69
2023/09/10 04:51:18;;;;;;;12.40;5.93;;;17.00;99.90;;;;;;4878671;29;20025;-69
2023/09/10 04:53:46;;;;;;;11.30;5.57;;;17.00;99.90;;;;;;4878574;29;20556;-69
2023/09/10 04:56:15;;;;;;;8.70;5.47;;;17.00;99.90;;;;;;4878806;29;20123;-69
2023/09/10 04:58:46;;;;;;;9.10;5.43;;;17.10;99.90;;;;;;4878731;29;20017;-69
2023/09/10 05:01:54;;;;;;;9.65;5.07;;;17.00;99.90;;;;;;4861665;29;20108;-69
2023/09/10 05:04:20;;;;;;;11.55;5.10;;;17.00;99.90;;;;;;4806746;29;20043;-69
2023/09/10 05:06:51;;;;;;;10.00;5.25;;;16.80;99.90;;;;;;4879794;29;20102;-70
2023/09/10 05:09:22;;;;;;;7.35;4.55;;;16.90;99.90;;;;;;4869159;29;20094;-69
2023/09/10 05:11:48;;;;;;;10.25;5.00;;;16.90;99.90;;;;;;4883119;29;20033;-69
2023/09/10 05:14:20;;;;;;;10.15;5.57;;;16.90;99.90;;;;;;4882103;29;20035;-70
2023/09/10 05:16:45;;;;;;;9.85;4.97;;;16.90;99.90;;;;;;4882403;29;20021;-70
2023/09/10 05:19:17;;;;;;;7.82;4.57;;;16.80;99.90;;;;;;4879199;29;20112;-70
2023/09/10 05:21:49;;;;;;;11.13;5.18;;;16.60;99.90;;;;;;4878006;29;20044;-71
2023/09/10 05:24:15;;;;;;;10.35;5.25;;;16.60;99.90;;;;;;4878374;29;20025;-69
2023/09/10 05:26:47;;;;;;;9.25;5.32;;;16.60;99.90;;;;;;4886039;29;20029;-69
2023/09/10 05:29:15;;;;;;;10.60;5.28;;;16.70;99.90;;;;;;4878219;29;20485;-70
2023/09/10 05:31:47;;;;;;;10.45;4.70;;;16.70;99.90;;;;;;4877800;29;20070;-70
2023/09/10 05:34:51;;;;;;;13.15;4.90;;;16.70;99.90;;;;;;4877922;29;20029;-69
2023/09/10 05:37:50;;;;;;;10.80;5.82;;;16.70;99.90;;;;;;4876237;29;20045;-70
2023/09/10 05:40:29;;;;;;;12.05;5.57;;;16.90;99.90;;;;;;4877498;29;20029;-69
2023/09/10 05:42:54;;;;;;;8.73;5.18;;;16.80;99.90;;;;;;4878260;29;20442;-70
2023/09/10 05:45:34;;;;;;;10.68;5.43;;;16.80;99.90;;;;;;4877856;29;20029;-70
2023/09/10 05:48:03;;;;;;;19.58;5.45;;;16.90;99.90;;;;;;4878389;29;20076;-70
2023/09/10 05:50:31;;;;;;;12.45;5.20;;;16.90;99.90;;;;;;4877534;29;20033;-70
2023/09/10 05:53:06;;;;;;;9.20;4.90;;;17.00;99.90;;;;;;4877820;29;20029;-69
2023/09/10 05:55:43;;;;;;;14.27;6.60;;;17.10;99.90;;;;;;4860837;29;20036;-70
2023/09/10 05:58:09;;;;;;;11.10;5.18;;;17.20;99.90;;;;;;4877822;29;20033;-69
2023/09/10 06:00:41;;;;;;;6.47;4.35;;;17.30;99.90;;;;;;4877200;29;20117;-68
2023/09/10 06:03:09;;;;;;;9.05;5.13;;;17.40;99.90;;;;;;4860318;29;20463;-68
2023/09/10 06:05:35;;;;;;;8.70;5.28;;;17.50;99.90;;;;;;4859147;29;20047;-69
2023/09/10 06:08:07;;;;;;;8.85;6.00;;;17.60;99.90;;;;;;4859224;29;20041;-68
2023/09/10 06:10:33;;;;;;;11.48;5.32;;;17.70;99.90;;;;;;4858827;29;20495;-68
2023/09/10 06:13:14;;;;;;;9.18;5.18;;;17.90;99.90;;;;;;4859240;29;20124;-69
2023/09/10 06:16:02;;;;;;;;;;;18.00;99.90;;;;;;4858379;29;20770;-68
2023/09/10 06:18:28;;;;;;;8.98;4.82;;;18.00;99.90;;;;;;4859220;29;19912;-69
2023/09/10 06:21:03;;;;;;;10.20;5.38;;;18.20;99.90;;;;;;4858940;29;20041;-68
2023/09/10 06:23:34;;;;;;;9.55;4.85;;;18.30;99.90;;;;;;4858997;29;20485;-68
2023/09/10 06:26:03;;;;;;;7.75;4.38;;;18.50;99.90;;;;;;4859472;29;20065;-68
2023/09/10 06:28:29;;;;;;;13.13;5.57;;;18.60;99.90;;;;;;4859741;29;20030;-68
2023/09/10 06:31:00;;;;;;;7.88;4.68;;;18.70;99.90;;;;;;4857616;29;20486;-68
2023/09/10 06:33:26;;;;;;;9.50;5.20;;;18.80;99.90;;;;;;4859013;29;20034;-68
2023/09/10 06:35:58;;;;;;;10.68;5.65;;;18.90;99.90;;;;;;4859139;29;20487;-69
2023/09/10 06:38:40;;;;;;;8.00;4.57;;;19.00;99.90;;;;;;4857812;29;20577;-71
2023/09/10 06:41:06;;;;;;;9.18;4.63;;;19.20;99.90;;;;;;4858606;29;20479;-68
2023/09/10 06:43:34;;;;;;;10.25;5.07;;;19.30;99.90;;;;;;4860970;29;20033;-69
2023/09/10 06:46:06;;;;;;;12.55;4.95;;;19.40;99.90;;;;;;4862743;29;20445;-69
2023/09/10 06:48:31;;;;;;;9.27;4.90;;;19.50;99.90;;;;;;4862644;29;20029;-68
2023/09/10 06:51:00;;;;;;;8.95;5.25;;;19.60;99.90;;;;;;4862536;29;20040;-69
2023/09/10 06:53:27;;;;;;;12.05;5.75;;;19.70;99.90;;;;;;4862682;29;20149;-69
2023/09/10 06:55:59;;;;;;;13.60;6.22;;;19.80;99.90;;;;;;4862999;29;20061;-69
2023/09/10 06:58:24;;;;;;;10.25;6.20;;;19.90;99.90;;;;;;4889253;29;20068;-69
2023/09/10 07:00:56;;;;;;;12.35;7.20;;;19.90;99.90;;;;;;4899593;29;20052;-69
2023/09/10 07:03:23;;;;;;;14.52;7.38;;;20.00;99.90;;;;;;4899824;29;20029;-69
2023/09/10 07:05:51;;;;;;;18.42;8.20;;;20.10;99.90;;;;;;4883158;29;20033;-70
2023/09/10 07:08:17;;;;;;;24.30;9.77;;;20.20;99.90;;;;;;4900004;29;20064;-69
2023/09/10 07:10:45;;;;;;;17.80;8.48;;;20.20;99.90;;;;;;4899651;29;20071;-70
2023/09/10 07:13:20;;;;;;;20.38;8.82;;;20.20;99.90;;;;;;4900099;29;20085;-69
2023/09/10 07:15:49;;;;;;;16.38;9.65;;;20.30;99.90;;;;;;4899815;29;20539;-69
2023/09/10 07:18:14;;;;;;;14.57;7.85;;;20.40;99.90;;;;;;4900079;29;20033;-69
2023/09/10 07:20:40;;;;;;;18.52;8.85;;;20.30;99.90;;;;;;4899448;29;20052;-69
2023/09/10 07:23:45;;;;;;;14.80;8.20;;;20.20;99.90;;;;;;4899457;29;20096;-69
2023/09/10 07:26:20;;;;;;;15.48;8.65;;;20.40;99.90;;;;;;4841204;29;20452;-68
2023/09/10 07:28:46;;;;;;;16.42;7.30;;;20.60;99.90;;;;;;4882470;29;20389;-69
2023/09/10 07:31:18;;;;;;;15.80;7.97;;;20.60;99.90;;;;;;4882187;29;20032;-69
2023/09/10 07:33:53;;;;;;;15.65;8.95;;;20.70;99.90;;;;;;4882368;29;20153;-69
2023/09/10 07:36:18;;;;;;;20.58;9.55;;;20.70;99.90;;;;;;4899189;29;20043;-69
2023/09/10 07:38:44;;;;;;;18.27;9.27;;;20.60;99.90;;;;;;4899131;29;20107;-69
2023/09/10 07:41:19;;;;;;;17.77;8.68;;;20.70;99.90;;;;;;4899010;29;20025;-69
2023/09/10 07:43:56;;;;;;;16.00;8.32;;;20.70;99.90;;;;;;4899286;29;20111;-69
2023/09/10 07:46:22;;;;;;;21.02;8.30;;;20.90;99.90;;;;;;4899198;29;20047;-69
2023/09/10 07:48:54;;;;;;;14.98;8.35;;;21.00;99.90;;;;;;4899135;29;20040;-69
2023/09/10 07:51:32;;;;;;;12.82;8.18;;;20.90;99.90;;;;;;4882034;29;20037;-69
2023/09/10 07:53:57;;;;;;;16.65;8.40;;;21.00;99.90;;;;;;4898305;29;20079;-69
2023/09/10 07:56:27;;;;;;;15.65;8.23;;;21.20;99.90;;;;;;4898505;29;20060;-70
2023/09/10 07:58:53;;;;;;;20.65;8.65;;;21.10;99.90;;;;;;4899170;29;20037;-68
2023/09/10 08:01:18;;;;;;;16.30;8.25;;;21.30;99.90;;;;;;4881610;29;20025;-69
2023/09/10 08:03:44;;;;;;;14.30;7.95;;;21.30;99.90;;;;;;4898974;29;20037;-69
2023/09/10 08:06:16;;;;;;;14.30;7.32;;;21.50;99.90;;;;;;4881911;29;20045;-69
2023/09/10 08:08:41;;;;;;;19.02;8.45;;;21.60;99.90;;;;;;4898694;29;20033;-69
2023/09/10 08:11:07;;;;;;;20.23;7.78;;;21.70;99.90;;;;;;4881292;29;20037;-69
2023/09/10 08:13:42;;;;;;;14.32;7.63;;;21.80;99.90;;;;;;4882003;29;20044;-69
2023/09/10 08:16:13;;;;;;;18.40;7.85;;;21.90;99.90;;;;;;4881858;29;20033;-70
2023/09/10 08:18:41;;;;;;;15.38;8.27;;;21.90;99.90;;;;;;4882413;29;20382;-69
2023/09/10 08:21:07;;;;;;;12.73;7.38;;;22.10;99.90;;;;;;4898337;29;20512;-69
2023/09/10 08:23:39;;;;;;;15.38;8.07;;;22.20;99.90;;;;;;4898471;29;20036;-69
2023/09/10 08:26:08;;;;;;;15.32;7.57;;;22.30;99.90;;;;;;4881615;29;20040;-69
2023/09/10 08:28:34;;;;;;;12.80;7.18;;;22.40;99.90;;;;;;4898116;29;20036;-69
2023/09/10 08:31:09;;;;;;;14.68;7.68;;;22.40;99.90;;;;;;4863254;29;20044;-69
2023/09/10 08:33:41;;;;;;;13.77;7.72;;;22.60;99.90;;;;;;4862896;29;20048;-69
2023/09/10 08:36:13;;;;;;;11.32;6.50;;;22.80;99.90;;;;;;4879336;29;20074;-68
2023/09/10 08:38:45;;;;;;;15.38;6.82;;;22.80;99.90;;;;;;4862816;29;20033;-68
2023/09/10 08:42:27;;;;;;;16.02;6.55;;;22.70;99.90;;;;;;4862297;29;20044;-68
2023/09/10 08:46:17;;;;;;;13.75;7.25;;;22.90;99.90;;;;;;4868666;29;20128;-70
2023/09/10 08:48:44;;;;;;;15.30;7.30;;;23.10;99.90;;;;;;4770220;30;20048;-69
2023/09/10 08:51:23;;;;;;;12.52;6.57;;;23.40;99.90;;;;;;4813253;29;20058;-70
2023/09/10 08:53:56;;;;;;;10.85;5.85;;;23.60;99.90;;;;;;4825027;29;20050;-69
2023/09/10 08:56:26;;;;;;;12.68;5.85;;;23.70;99.90;;;;;;4810133;29;20604;-69
2023/09/10 08:59:03;;;;;;;11.32;6.10;;;23.70;99.90;;;;;;4808968;29;20038;-69
2023/09/10 09:01:36;;;;;;;12.98;6.93;;;23.80;99.90;;;;;;4807446;29;20031;-69
2023/09/10 09:04:12;;;;;;;11.98;6.93;;;24.00;99.90;;;;;;4806438;29;20031;-69
2023/09/10 09:09:57;;;;;;;;;;;;;;;;;;;;;
2023/09/10 09:12:36;;;;;;;10.57;5.97;;;24.40;99.90;;;;;;4821264;29;20563;-69
2023/09/10 09:18:21;;;;;;;11.43;6.60;;;24.60;99.90;;;;;;4824143;29;20038;-68
2023/09/10 09:20:51;;;;;;;15.85;6.93;;;24.70;99.90;;;;;;4863683;29;20100;-68
2023/09/10 09:24:14;;;;;;;15.73;6.88;;;24.90;99.90;;;;;;4862015;29;20442;-68
2023/09/10 09:26:41;;;;;;;11.60;6.13;;;25.10;99.90;;;;;;4878416;29;20049;-69
2023/09/10 09:29:23;;;;;;;10.98;6.18;;;25.30;99.90;;;;;;4862143;29;20124;-69
2023/09/10 09:33:06;;;;;;;12.55;6.28;;;25.30;99.90;;;;;;4861785;29;20123;-69
2023/09/10 09:35:33;;;;;;;14.00;6.40;;;25.40;99.90;;;;;;4812108;29;20054;-69
2023/09/10 09:38:29;;;;;;;10.23;4.60;;;25.60;99.90;;;;;;4821101;29;20089;-69
2023/09/10 09:41:15;;;;;;;7.18;4.32;;;25.70;99.90;;;;;;4797745;29;20527;-68
2023/09/10 09:43:44;;;;;;;6.45;4.50;;;25.90;99.90;;;;;;4820920;29;20110;-69
2023/09/10 09:46:33;;;;;;;8.23;5.28;;;26.10;99.90;;;;;;4805449;29;20061;-69
2023/09/10 09:49:28;;;;;;;7.72;4.65;;;26.40;99.90;;;;;;4769395;30;20051;-69
2023/09/10 09:52:06;;;;;;;6.60;3.63;;;26.50;99.90;;;;;;4748442;30;20063;-68
2023/09/10 09:54:41;;;;;;;7.32;4.78;;;26.70;99.90;;;;;;4748757;30;20044;-69
2023/09/10 09:57:46;;;;;;;7.72;4.65;;;26.70;99.90;;;;;;4748640;30;20052;-68
2023/09/10 10:00:13;;;;;;;8.93;4.55;;;26.50;99.90;;;;;;4747417;30;20123;-69
2023/09/10 10:03:12;;;;;;;8.30;4.75;;;26.60;99.90;;;;;;4748848;30;20123;-69
2023/09/10 10:05:54;;;;;;;8.02;4.07;;;26.80;99.90;;;;;;4748838;30;20139;-69
2023/09/10 10:08:34;;;;;;;8.45;4.45;;;27.00;99.90;;;;;;4748442;30;20032;-69
2023/09/10 10:11:00;;;;;;;8.63;4.18;;;27.20;99.90;;;;;;4748477;30;20063;-70
2023/09/10 10:13:36;;;;;;;8.00;3.83;;;27.50;99.90;;;;;;4764837;30;20485;-68
2023/09/10 10:16:07;;;;;;;7.78;4.45;;;27.70;99.90;;;;;;4766066;30;20052;-68
2023/09/10 10:18:39;;;;;;;8.30;4.50;;;27.90;99.90;;;;;;4750896;30;20641;-69
2023/09/10 10:21:05;;;;;;;9.55;5.13;;;27.90;99.90;;;;;;4766046;30;20047;-69
2023/09/10 10:23:43;;;;;;;7.32;3.95;;;27.90;99.90;;;;;;4766333;30;20040;-69
2023/09/10 10:26:10;;;;;;;6.90;3.83;;;28.20;99.90;;;;;;4786541;29;20050;-69
2023/09/10 10:28:40;;;;;;;6.97;3.92;;;28.50;99.90;;;;;;4817708;29;20041;-69
2023/09/10 10:31:31;;;;;;;6.65;4.07;;;28.10;99.90;;;;;;4877594;29;20033;-70
2023/09/10 10:34:23;;;;;;;8.68;5.20;;;28.00;99.90;;;;;;4863209;29;20439;-69
2023/09/10 10:37:47;;;;;;;7.20;4.03;;;28.30;99.90;;;;;;4877804;29;20101;-69
2023/09/10 10:40:38;;;;;;;6.53;3.95;;;28.70;99.90;;;;;;4877405;29;20033;-70
2023/09/10 10:43:20;;;;;;;6.30;3.50;;;28.90;99.90;;;;;;4851837;29;20128;-69
2023/09/10 10:46:14;;;;;;;6.57;3.80;;;29.30;99.90;;;;;;4877526;29;20128;-70
2023/09/10 10:48:41;;;;;;;7.20;3.90;;;29.30;99.90;;;;;;4864174;29;20040;-68
2023/09/10 10:51:21;;;;;;;7.07;3.75;;;28.90;99.90;;;;;;4877259;29;20446;-68
2023/09/10 10:53:48;;;;;;;;;;;29.20;99.60;;;;;;4878110;29;20060;-69
2023/09/10 10:57:25;;;;;;;9.45;3.70;;;29.50;97.30;;;;;;4860676;29;19915;-68
2023/09/10 10:59:56;;;;;;;11.13;3.88;;;29.30;98.30;;;;;;4767870;29;20080;-69
2023/09/10 11:02:23;;;;;;;7.68;3.63;;;28.90;96.60;;;;;;4820063;29;20035;-69
2023/09/10 11:05:06;;;;;;;7.70;3.40;;;29.20;97.60;;;;;;4804638;29;20129;-69
2023/09/10 11:07:45;;;;;;;6.22;4.05;;;29.40;95.70;;;;;;4820006;29;20401;-69
2023/09/10 11:10:26;;;;;;;9.27;3.13;;;29.20;96.50;;;;;;4819609;29;20062;-69
2023/09/10 11:13:17;;;;;;;4.88;2.70;;;29.80;96.90;;;;;;4819726;29;20042;-68
2023/09/10 11:16:22;;;;;;;;;;;30.30;93.80;;;;;;4805257;29;20447;-68
2023/09/10 11:18:48;;;;;;;4.47;2.85;;;30.30;92.90;;;;;;4819817;29;20408;-68
2023/09/10 11:21:55;;;;;;;6.03;3.10;;;30.50;92.90;;;;;;4804169;29;20038;-68
2023/09/10 11:24:20;;;;;;;5.20;2.70;;;30.90;91.60;;;;;;4783380;29;20067;-68
2023/09/10 11:26:47;;;;;;;6.35;2.80;;;31.50;88.00;;;;;;4819422;29;20536;-68
2023/09/10 11:33:19;;;;;;;4.72;2.75;;;32.50;81.20;;;;;;4809466;29;20115;-69
2023/09/10 11:36:02;;;;;;;7.60;3.20;;;32.60;79.30;;;;;;4817474;29;20138;-68
2023/09/10 11:38:30;;;;;;;5.90;2.00;;;31.80;78.20;;;;;;4880470;29;20055;-69
2023/09/10 11:40:57;;;;;;;6.00;2.97;;;32.40;79.40;;;;;;4879882;29;20025;-68
2023/09/10 11:43:29;;;;;;;6.75;2.80;;;32.80;79.20;;;;;;4880633;29;20442;-68
2023/09/10 11:45:55;;;;;;;4.75;2.42;;;32.70;77.70;;;;;;4863768;29;20482;-69
2023/09/10 11:48:21;;;;;;;3.40;1.88;;;32.70;78.10;;;;;;4880253;29;20541;-69
2023/09/10 11:50:47;;;;;;;4.78;2.17;;;32.70;77.10;;;;;;4847840;29;20033;-67
2023/09/10 11:53:17;;;;;;;4.03;2.67;;;32.30;77.00;;;;;;4880197;29;20335;-68
2023/09/10 11:55:49;;;;;;;8.95;2.30;;;32.30;76.50;;;;;;4863449;29;20169;-67
2023/09/10 11:58:38;;;;;;;6.47;2.53;;;32.50;77.30;;;;;;4863243;29;20036;-68
2023/09/10 12:01:04;;;;;;;3.72;2.17;;;32.50;75.40;;;;;;4806912;29;20053;-68
2023/09/10 12:03:36;;;;;;;3.72;2.22;;;32.60;76.30;;;;;;4807111;29;20042;-69
2023/09/10 12:06:23;;;;;;;5.05;2.38;;;32.50;75.70;;;;;;4822428;29;20184;-69
2023/09/10 12:08:48;;;;;;;2.60;1.70;;;31.80;76.60;;;;;;4822744;29;20155;-69
2023/09/10 12:11:38;;;;;;;3.00;2.15;;;32.50;77.00;;;;;;4822270;29;20042;-69
2023/09/10 12:14:04;;;;;;;3.10;1.95;;;33.60;77.10;;;;;;4783272;29;20046;-69
2023/09/10 12:16:32;;;;;;;4.45;2.10;;;33.20;75.50;;;;;;4822412;29;20122;-69
2023/09/10 12:19:02;;;;;;;4.03;2.30;;;33.90;73.30;;;;;;4822268;29;20050;-69
2023/09/10 12:21:34;;;;;;;3.92;1.92;;;35.20;69.30;;;;;;4806949;29;20511;-69
2023/09/10 12:23:59;;;;;;;3.22;2.00;;;34.40;68.90;;;;;;4807025;29;20400;-69
2023/09/10 12:26:31;;;;;;;8.38;2.10;;;35.00;66.70;;;;;;4821996;29;20046;-67
2023/09/10 12:32:30;;;;;;;3.42;1.70;;;37.20;62.40;;;;;;4749950;30;20052;-68
2023/09/10 12:34:59;;;;;;;5.03;2.65;;;38.50;57.70;;;;;;4735458;30;20521;-68
2023/09/10 12:37:54;;;;;;;8.77;2.60;;;37.90;56.50;;;;;;4746697;29;20160;-68
2023/09/10 12:40:30;;;;;;;2.28;1.50;;;39.20;55.20;;;;;;4802977;29;20697;-68
2023/09/10 12:43:52;;;;;;;4.85;1.60;;;39.10;52.90;;;;;;4803990;29;20065;-69
2023/09/10 12:46:18;;;;;;;3.08;1.83;;;38.00;54.60;;;;;;4795652;29;20202;-68
2023/09/10 12:48:46;;;;;;;4.88;2.45;;;35.30;58.00;;;;;;4803847;29;20756;-68
2023/09/10 12:51:37;;;;;;;2.67;1.48;;;35.80;59.20;;;;;;4803431;29;20400;-68
2023/09/10 12:54:19;;;;;;;3.55;2.33;;;35.40;59.60;;;;;;4786583;29;20062;-69
2023/09/10 12:56:51;;;;;;;3.78;1.98;;;34.50;61.90;;;;;;4788817;29;20039;-72
2023/09/10 12:59:20;;;;;;;7.03;1.90;;;34.20;60.40;;;;;;4803540;29;20035;-70
2023/09/10 13:02:01;;;;;;;3.30;1.83;;;34.50;60.50;;;;;;4788473;29;20119;-70
2023/09/10 13:04:28;;;;;;;4.93;2.47;;;34.60;62.20;;;;;;4803875;29;20114;-69
2023/09/10 13:07:12;;;;;;;3.83;2.05;;;35.00;62.80;;;;;;4803572;29;20129;-69
2023/09/10 13:09:38;;;;;;;5.45;1.80;;;35.90;58.70;;;;;;4878810;29;20025;-69
2023/09/10 13:12:04;;;;;;;9.70;1.73;;;36.70;58.80;;;;;;4878732;29;20029;-69
2023/09/10 13:14:54;;;;;;;4.68;1.90;;;37.00;55.60;;;;;;4878781;29;20104;-69
2023/09/10 13:17:19;;;;;;;3.50;1.80;;;36.70;57.60;;;;;;4852255;29;20037;-69
2023/09/10 13:19:51;;;;;;;5.43;2.05;;;35.80;59.90;;;;;;4878439;29;20029;-69
2023/09/10 13:22:20;;;;;;;2.35;1.50;;;35.00;59.70;;;;;;4878621;29;20041;-68
2023/09/10 13:24:55;;;;;;;5.28;2.60;;;36.60;57.70;;;;;;4878407;29;20117;-69
2023/09/10 13:27:29;;;;;;;5.63;1.80;;;37.00;56.40;;;;;;4861761;29;20486;-69
2023/09/10 13:30:20;;;;;;;3.75;1.75;;;37.10;55.20;;;;;;4878137;29;20040;-69
2023/09/10 13:32:55;;;;;;;4.03;2.10;;;35.00;59.30;;;;;;4851823;29;20124;-68
2023/09/10 13:35:24;;;;;;;3.78;1.80;;;35.80;59.90;;;;;;4878399;29;20401;-69
2023/09/10 13:37:59;;;;;;;3.67;2.00;;;36.30;57.80;;;;;;4861547;29;20025;-69
2023/09/10 13:40:39;;;;;;;4.18;1.67;;;35.60;57.10;;;;;;4877870;29;20139;-69
2023/09/10 13:43:05;;;;;;;3.70;2.10;;;36.40;58.20;;;;;;4862220;29;20076;-69